Date,TemperatureHighF,TemperatureAvgF,TemperatureLowF,DewpointHighF,DewpointAvgF,DewpointLowF,HumidityHigh,HumidityAvg,HumidityLow,PressureMaxIn,PressureMinIn,WindSpeedMaxMPH,WindSpeedAvgMPH,GustSpeedMaxMPH,PrecipitationSumIn
2013-1-1,31.4,25.5,12.6,25.3,16.0,2.6,79,67,55,29.91,29.73,15,1,19,0.00
2013-1-2,25.6,14.8,4.3,14.5,8.0,-2.0,86,74,61,30.14,29.90,9,1,12,0.01
2013-1-3,16.9,4.9,-1.0,7.8,-4.2,-8.0,74,66,41,30.15,30.05,7,0,8,0.00
2013-1-4,33.3,29.7,23.6,23.2,20.9,18.8,82,70,62,29.98,29.83,9,4,15,0.00
2013-1-5,36.2,30.4,24.0,23.6,19.5,14.1,74,64,44,30.24,29.86,13,2,21,0.01
2013-1-6,37.0,29.4,23.2,28.4,24.1,17.0,93,81,70,30.19,29.93,6,1,10,0.03
2013-1-7,34.1,29.2,21.3,28.2,21.8,14.9,88,74,58,30.37,29.97,6,0,10,0.00
2013-1-8,40.5,31.3,22.4,27.8,23.6,16.5,87,73,58,30.37,30.28,9,1,15,0.01
2013-1-9,40.4,34.0,28.3,32.6,26.9,23.2,88,76,54,30.36,30.01,11,1,15,0.02
2013-1-10,41.4,35.7,28.8,29.1,23.8,21.2,77,62,49,30.52,30.07,13,2,21,0.01
2013-1-11,34.5,31.3,25.2,33.0,26.2,20.9,96,82,63,30.51,30.17,5,0,8,0.19
2013-1-12,41.1,37.8,34.1,40.3,37.0,33.0,97,97,96,30.18,30.11,4,0,7,0.02
2013-1-13,44.1,40.9,37.7,43.5,40.3,36.9,98,98,97,30.13,29.97,8,2,13,0.01
2013-1-14,47.7,41.7,32.1,47.1,37.3,24.9,98,85,61,30.25,29.84,10,2,13,0.05
2013-1-15,35.2,30.8,26.4,25.6,23.6,22.5,87,75,63,30.31,30.20,3,0,6,0.00
2013-1-16,30.8,29.2,26.8,29.5,26.9,22.2,97,91,74,30.23,29.81,1,0,4,0.00
2013-1-17,35.3,29.0,21.7,32.0,24.0,11.1,97,82,62,30.09,29.83,6,0,14,0.00
2013-1-18,21.6,16.6,11.4,11.6,2.4,-4.0,65,53,40,30.42,30.02,8,2,19,0.00
2013-1-19,40.2,30.5,18.2,30.6,19.8,7.0,78,64,53,30.34,29.86,13,4,18,0.05
2013-1-20,44.3,34.0,21.8,31.0,22.9,8.7,83,65,29,29.92,29.56,11,4,18,0.03
2013-1-21,21.8,18.0,12.5,16.2,10.3,5.1,92,72,58,30.05,29.78,7,1,11,0.00
2013-1-22,18.3,13.1,4.0,16.3,3.7,-4.0,93,67,39,30.07,29.75,12,1,15,0.00
2013-1-23,9.3,3.5,-3.0,0.5,-7.0,-11.0,81,61,41,30.14,30.05,14,2,17,0.00
2013-1-24,13.4,4.1,-5.0,-6.0,-8.7,-11.0,76,56,37,30.29,30.11,15,2,18,0.00
2013-1-25,16.3,9.1,1.8,8.6,-4.6,-9.0,88,54,34,30.34,30.06,6,1,9,0.00
2013-1-26,20.5,11.4,5.5,7.6,1.3,-4.0,88,66,36,30.26,30.01,6,0,12,0.00
2013-1-27,25.5,14.9,5.6,3.2,0.9,-2.0,76,55,35,30.48,30.26,8,0,11,0.00
2013-1-28,25.0,20.7,13.8,23.5,12.0,-1.0,94,71,40,30.46,30.00,4,0,9,0.00
2013-1-29,32.3,28.0,23.4,31.2,26.5,21.9,96,94,90,30.17,30.00,4,0,7,0.12
2013-1-30,52.8,44.0,31.9,52.2,43.3,30.8,98,98,96,30.11,29.38,13,3,21,0.37
2013-1-31,56.6,40.2,24.8,56.0,33.8,13.3,98,79,49,29.55,28.93,23,6,35,1.13
2013-2-1,25.9,21.9,16.7,14.7,8.6,4.6,76,57,43,30.08,29.55,12,4,20,0.00
2013-2-2,24.6,17.9,9.2,13.5,6.7,1.2,81,62,46,30.22,30.03,10,2,12,0.00
2013-2-3,25.4,19.1,13.0,16.6,13.7,10.8,91,80,65,30.04,29.74,3,0,5,0.00
2013-2-4,23.8,18.3,12.9,12.7,9.5,5.8,85,69,48,29.93,29.73,15,2,17,0.00
2013-2-5,28.2,20.5,15.1,19.5,12.8,8.0,91,72,53,30.00,29.91,4,0,10,0.00
2013-2-6,31.9,24.0,17.2,23.4,15.2,2.3,94,72,43,30.29,29.89,8,2,14,0.00
2013-2-7,28.1,19.5,10.6,6.5,4.7,3.2,74,54,37,30.51,30.29,3,0,8,0.00
2013-2-8,25.8,21.6,15.4,23.6,17.0,4.5,93,84,47,30.44,29.67,13,2,19,0.00
2013-2-9,20.4,15.0,10.6,18.7,12.2,5.2,93,89,76,30.24,29.69,12,3,17,0.00
2013-2-10,36.3,20.6,8.6,10.6,3.8,0.0,78,51,22,30.45,30.24,6,1,7,0.04
2013-2-11,39.3,32.5,22.4,38.5,28.3,5.9,97,86,45,30.33,29.64,7,2,15,0.19
2013-2-12,36.1,33.6,30.9,33.1,27.2,20.8,97,78,66,29.88,29.65,10,2,18,0.00
2013-2-13,38.7,31.6,29.2,24.0,22.2,20.4,76,68,52,29.85,29.70,5,1,9,0.00
2013-2-14,40.4,31.8,24.5,23.5,20.9,19.0,80,65,46,29.96,29.69,5,0,9,0.00
2013-2-15,47.7,36.0,28.7,32.4,28.4,23.2,93,75,53,29.96,29.88,10,2,17,0.00
2013-2-16,35.4,30.1,22.8,27.7,22.2,5.1,94,74,45,29.94,29.72,6,0,9,0.07
2013-2-17,22.7,17.8,9.6,6.7,2.3,-2.0,62,50,36,29.76,29.48,13,3,23,0.00
2013-2-18,25.1,16.3,6.7,1.4,-1.2,-4.0,65,47,28,30.17,29.77,13,3,18,0.00
2013-2-19,41.6,31.6,17.6,37.4,22.6,1.0,97,71,47,30.18,29.57,14,2,19,0.12
2013-2-20,35.1,25.5,20.6,34.3,16.7,9.8,97,70,49,29.80,29.57,17,4,19,0.00
2013-2-21,26.8,21.8,18.3,16.3,12.2,8.7,80,67,53,30.26,29.78,12,3,23,0.00
2013-2-22,38.4,28.7,19.6,24.3,19.1,15.2,87,69,46,30.39,30.25,5,1,10,0.00
2013-2-23,31.5,30.0,28.3,30.2,27.0,22.7,96,89,78,30.29,29.88,6,0,11,0.00
2013-2-24,33.8,32.0,29.3,32.5,30.8,28.0,96,96,94,29.89,29.72,3,0,7,0.00
2013-2-25,34.3,30.4,25.7,31.2,28.7,24.4,96,93,87,30.23,29.89,2,0,3,0.06
2013-2-26,36.6,32.9,30.2,31.5,28.7,26.3,95,85,69,30.31,30.10,9,0,11,0.10
2013-2-27,37.9,33.7,31.2,37.1,32.4,28.0,97,95,86,30.10,29.58,13,3,21,0.72
2013-2-28,38.7,33.2,29.6,36.5,32.0,28.8,97,96,90,29.61,29.54,2,0,4,0.12
2013-3-1,39.6,34.0,29.0,32.0,28.1,23.4,97,80,63,29.69,29.54,6,1,15,0.01
2013-3-2,35.6,31.4,27.6,26.9,24.9,21.9,83,77,68,29.68,29.63,5,0,8,0.00
2013-3-3,33.1,27.6,24.9,27.9,23.1,19.9,91,83,79,29.65,29.59,5,1,9,0.00
2013-3-4,27.7,25.1,22.0,21.7,19.6,17.3,82,79,74,29.80,29.64,6,2,17,0.00
2013-3-5,42.6,31.9,23.2,28.3,23.8,18.4,84,72,55,30.06,29.80,6,1,9,0.01
2013-3-6,36.0,32.4,30.5,31.5,29.3,25.9,95,88,79,30.08,30.00,8,2,15,0.03
2013-3-7,33.3,30.1,27.4,29.4,26.2,24.6,93,86,74,30.06,30.01,10,2,17,0.00
2013-3-10,37.5,36.1,34.9,31.3,30.9,30.5,84,81,78,30.27,30.25,3,1,10,0.00
2013-3-11,45.8,38.3,31.6,40.6,34.1,29.6,95,86,71,30.28,30.10,9,2,15,0.00
2013-3-12,50.4,46.1,37.8,49.5,44.9,35.6,97,96,92,30.10,29.67,13,3,20,1.02
2013-3-13,44.0,36.6,31.6,35.7,26.1,18.5,94,68,41,29.79,29.72,10,1,15,0.00
2013-3-14,31.5,24.5,18.9,24.3,13.1,7.9,80,62,50,29.84,29.74,13,2,18,0.00
2013-3-15,35.2,25.7,17.8,28.4,14.7,4.4,95,65,38,29.87,29.66,12,3,18,0.00
2013-3-16,34.0,27.2,18.5,24.6,14.4,10.5,87,60,38,29.87,29.70,9,1,12,0.01
2013-3-17,33.1,25.5,18.6,15.3,9.2,2.1,79,53,29,30.29,29.87,10,1,13,0.00
2013-3-18,34.8,24.3,11.3,22.5,4.4,-1.0,88,46,21,30.44,30.17,6,1,10,0.00
2013-3-19,31.4,28.4,24.8,30.1,26.9,22.7,95,94,89,30.16,29.62,7,1,13,0.00
2013-3-20,33.6,26.0,19.5,26.4,19.6,16.7,95,77,57,29.80,29.70,6,0,11,0.00
2013-3-21,36.0,26.8,19.8,19.1,14.3,9.8,86,61,35,29.80,29.59,2,0,7,0.04
2013-3-22,34.6,26.4,18.3,22.3,17.3,11.7,82,69,50,29.77,29.63,11,1,16,0.00
2013-3-23,36.5,30.2,23.4,22.6,19.5,16.8,85,65,46,29.82,29.69,17,2,21,0.01
2013-3-24,43.0,33.5,26.7,24.5,21.7,19.0,77,63,45,29.85,29.72,7,1,14,0.04
2013-3-25,41.3,34.1,28.1,27.7,24.0,21.1,78,67,50,29.75,29.49,5,1,11,0.00
2013-3-26,42.5,34.9,31.2,29.9,24.6,18.5,90,68,44,29.80,29.55,9,0,10,0.01
2013-3-27,47.5,37.0,29.0,31.1,24.7,19.1,78,62,41,29.89,29.78,5,0,11,0.00
2013-3-28,46.5,38.5,32.3,33.8,30.3,28.1,94,73,50,30.03,29.88,6,0,8,0.02
2013-3-29,50.2,40.8,33.1,33.3,30.4,26.0,88,68,41,30.06,29.99,9,1,14,0.00
2013-3-30,52.1,41.4,30.5,30.1,23.5,15.8,86,54,24,30.09,30.01,9,0,15,0.00
2013-3-31,52.0,42.2,33.7,37.9,25.5,18.9,93,54,31,30.10,29.69,10,2,17,0.10
2013-4-1,54.0,38.9,28.5,42.9,32.3,12.9,97,79,44,29.79,29.51,12,2,17,0.36
2013-4-2,32.9,27.8,23.4,22.6,15.0,10.1,89,59,39,29.95,29.78,17,4,23,0.00
2013-4-3,39.2,29.9,23.3,22.6,13.5,9.4,90,52,30,30.19,29.94,14,4,20,0.00
2013-4-4,51.6,36.5,22.7,26.7,17.4,13.2,77,49,22,30.31,30.03,10,2,16,0.00
2013-4-5,55.2,40.9,32.7,29.2,25.1,19.7,86,58,26,30.03,29.68,14,2,14,0.00
2013-4-6,44.5,34.0,25.8,26.2,9.5,3.3,72,38,20,30.30,29.89,9,2,16,0.00
2013-4-7,52.0,40.5,31.5,39.4,24.7,3.7,91,56,26,30.30,29.96,13,3,26,0.00
2013-4-8,64.3,49.9,39.0,40.6,36.1,30.9,97,64,30,30.06,29.95,6,1,11,0.00
2013-4-9,62.7,53.4,43.2,49.4,42.3,36.7,96,68,48,30.01,29.85,14,1,20,0.03
2013-4-10,61.3,51.6,44.8,51.2,46.9,41.0,96,85,63,29.96,29.81,5,0,6,0.30
2013-4-11,49.8,43.1,33.7,48.7,36.2,25.7,96,78,45,30.10,29.81,5,1,11,0.09
2013-4-12,33.7,32.7,31.7,32.1,31.3,30.2,96,95,91,30.11,29.78,8,1,13,0.24
2013-4-13,49.5,39.4,31.6,37.5,33.8,30.5,96,82,55,29.94,29.74,8,1,11,0.34
2013-4-14,46.0,40.0,34.0,35.4,29.2,24.2,89,67,45,30.21,29.91,15,1,16,0.00
2013-4-15,56.9,43.8,32.4,34.7,29.2,23.7,78,58,39,30.37,30.21,6,1,11,0.00
2013-4-16,60.5,48.3,36.9,49.7,41.2,29.5,94,78,56,30.36,30.07,12,3,22,0.03
2013-4-17,62.9,51.9,43.9,49.6,35.2,26.1,96,58,29,30.30,30.07,7,1,11,0.03
2013-4-18,58.0,49.3,40.1,44.5,31.8,26.8,86,52,37,30.38,30.10,7,2,17,0.00
2013-4-19,68.5,57.8,47.9,61.0,55.3,44.5,98,92,75,30.11,29.60,13,4,28,0.17
2013-4-20,60.1,45.3,34.0,59.2,35.0,21.2,97,70,37,30.23,29.60,12,3,17,0.49
2013-4-21,50.2,38.1,28.1,21.5,17.7,13.9,70,46,24,30.64,30.23,10,1,12,0.00
2013-4-22,52.0,40.3,30.7,30.1,24.2,17.2,80,56,29,30.72,30.55,10,1,13,0.00
2013-4-23,39.0,35.9,32.2,36.1,32.5,27.7,96,88,80,30.55,30.11,5,1,10,0.00
2013-4-24,71.1,51.7,37.3,47.1,41.9,36.2,97,74,37,30.11,29.78,11,1,17,0.00
2013-4-25,57.3,48.0,40.3,47.6,32.0,20.0,97,58,25,30.25,29.79,8,2,16,0.03
2013-4-26,62.3,50.3,39.8,36.3,28.4,22.6,63,44,25,30.39,30.25,7,1,12,0.00
2013-4-27,64.4,50.9,37.2,38.0,33.1,27.4,76,53,25,30.39,30.25,5,1,8,0.00
2013-4-28,69.2,54.0,39.8,41.3,35.7,25.7,88,54,27,30.31,30.16,7,1,12,0.00
2013-4-29,63.2,52.8,46.1,45.5,34.9,18.6,83,54,26,30.23,30.17,9,2,11,0.00
2013-4-30,71.1,56.9,47.2,37.0,30.1,23.1,66,39,18,30.31,30.21,6,1,9,0.00
2013-5-1,72.2,57.3,42.0,43.4,30.1,22.9,69,38,20,30.44,30.30,6,1,9,0.00
2013-5-2,78.8,59.7,47.5,42.6,38.0,30.4,73,48,21,30.43,30.27,8,1,11,0.00
2013-5-3,66.2,51.9,38.4,43.2,38.5,33.3,86,62,41,30.47,30.34,5,1,11,0.00
2013-5-4,69.8,55.3,42.2,45.3,36.7,19.3,92,56,23,30.35,30.21,7,1,11,0.00
2013-5-5,68.6,51.0,33.0,40.6,33.4,27.6,92,56,26,30.29,30.18,6,1,9,0.00
2013-5-6,72.2,53.6,38.3,48.5,40.0,31.4,96,67,26,30.25,30.11,5,1,7,0.00
2013-5-7,77.4,62.2,46.2,55.5,48.0,36.0,95,65,23,30.15,30.04,6,1,9,0.00
2013-5-8,69.0,60.2,54.1,59.9,56.2,51.6,96,87,68,30.14,30.00,6,1,13,0.58
2013-5-9,65.0,58.0,53.6,58.5,55.1,52.5,97,91,72,30.00,29.84,3,0,6,0.09
2013-5-10,75.7,62.7,51.2,59.2,53.9,50.3,98,76,45,29.95,29.86,7,1,8,0.00
2013-5-11,62.0,59.1,56.4,60.3,57.1,53.3,98,93,78,29.86,29.65,9,2,17,0.39
2013-5-12,63.2,54.1,40.7,58.0,46.0,29.8,98,76,46,29.80,29.58,7,1,15,0.03
2013-5-13,50.1,43.2,37.2,32.0,28.7,25.4,74,57,40,30.04,29.80,9,1,13,0.00
2013-5-14,52.8,44.1,36.1,32.5,29.4,26.1,78,58,38,30.06,29.99,7,0,9,0.00
2013-5-15,57.5,47.5,37.1,50.7,38.7,28.8,96,73,46,30.05,29.67,11,1,15,0.08
2013-5-16,77.2,63.4,49.1,50.1,40.3,31.9,97,49,23,29.77,29.65,12,2,18,0.00
2013-5-17,67.1,55.7,45.2,41.7,37.8,30.2,81,54,29,30.19,29.77,9,1,12,0.00
2013-5-18,69.7,58.1,46.6,47.6,40.0,35.0,79,53,33,30.29,30.20,5,1,9,0.00
2013-5-19,61.3,53.7,47.4,53.4,50.0,45.2,97,88,71,30.31,30.17,6,1,8,0.17
2013-5-20,78.3,63.5,53.0,65.1,58.5,52.1,98,86,61,30.16,29.93,7,0,9,0.03
2013-5-21,86.0,67.1,50.4,69.3,61.6,49.3,97,84,51,29.99,29.76,3,0,6,0.33
2013-5-22,73.3,61.0,49.9,67.7,58.9,48.8,98,93,81,29.97,29.82,3,0,7,0.84
2013-5-23,67.6,64.3,61.3,67.0,63.6,59.6,98,98,93,29.85,29.73,8,1,11,1.60
2013-5-24,62.5,55.7,42.1,61.9,54.0,41.2,98,94,85,29.84,29.59,8,0,10,0.72
2013-5-25,43.2,40.8,37.4,42.4,39.9,36.5,98,97,96,29.84,29.76,6,1,12,0.80
2013-5-26,49.8,42.8,36.5,44.4,39.2,35.5,97,88,69,30.01,29.77,6,1,15,0.10
2013-5-27,69.1,62.0,52.9,41.9,38.1,33.7,60,42,30,30.16,30.09,12,0,12,0.00
2013-5-28,70.3,58.6,45.0,53.9,42.0,35.3,92,57,32,30.21,30.12,2,0,6,0.00
2013-5-29,71.2,60.3,54.7,66.6,58.5,53.5,97,94,83,30.13,29.93,3,0,7,0.68
2013-5-30,84.8,71.4,60.1,71.1,64.8,59.5,98,82,56,30.08,30.01,6,0,7,0.01
2013-5-31,90.4,77.2,65.4,69.6,65.1,58.4,93,69,36,30.07,29.91,2,0,7,0.00
2013-6-1,88.9,76.0,64.7,69.8,65.3,60.7,87,71,44,29.94,29.81,3,0,10,0.00
2013-6-2,83.8,72.0,64.5,69.7,66.5,63.5,97,84,61,29.85,29.67,6,1,14,0.25
2013-6-3,74.3,64.6,52.8,65.2,59.3,40.0,98,84,57,29.84,29.75,4,0,9,0.32
2013-6-4,69.6,57.1,46.3,48.0,43.2,38.0,80,61,41,30.08,29.84,5,0,12,0.00
2013-6-5,72.6,59.3,48.0,53.8,47.3,43.1,89,67,39,30.17,30.07,3,0,4,0.00
2013-6-6,68.9,59.2,51.3,53.4,49.7,45.7,94,72,47,30.15,30.06,1,0,8,0.13
2013-6-7,53.5,51.8,49.3,52.6,50.7,48.4,97,96,94,30.05,29.78,3,0,5,1.60
2013-6-8,72.2,58.7,48.7,62.0,55.0,47.9,98,88,68,30.02,29.64,5,0,8,0.62
2013-6-9,74.8,63.2,51.9,58.6,54.4,50.7,97,75,47,30.15,30.01,3,0,8,0.00
2013-6-10,66.4,60.1,55.3,59.7,56.1,52.0,97,87,72,30.16,29.92,4,0,6,1.17
2013-6-11,60.9,56.6,53.5,58.8,55.6,52.6,98,96,92,29.92,29.55,3,0,6,1.22
2013-6-12,65.9,58.9,54.5,56.4,53.2,50.2,98,82,63,29.82,29.57,6,0,9,0.00
2013-6-13,56.9,52.8,48.2,54.7,51.0,47.3,97,94,86,29.81,29.64,2,0,6,1.31
2013-6-14,72.9,57.7,47.2,56.5,50.5,46.3,98,80,43,29.81,29.62,3,0,4,0.47
2013-6-15,74.8,63.6,54.5,52.1,47.8,41.3,85,59,32,29.93,29.81,2,0,7,0.00
2013-6-16,68.4,62.8,52.7,59.3,51.9,41.0,84,68,52,29.93,29.69,3,0,12,0.00
2013-6-17,79.9,65.2,57.5,64.4,58.9,54.9,96,82,49,29.88,29.76,4,0,9,0.17
2013-6-18,69.6,59.7,54.9,64.8,58.4,54.0,98,95,82,29.91,29.85,1,0,2,0.09
2013-6-19,72.4,59.8,50.3,53.9,48.3,37.9,97,70,35,30.14,29.88,1,0,3,0.00
2013-6-20,76.9,63.6,51.1,56.3,48.4,37.4,87,60,32,30.25,30.14,2,0,7,0.00
2013-6-21,81.8,67.4,55.1,62.4,56.1,49.3,92,70,36,30.23,30.17,2,0,4,0.00
2013-6-22,81.2,69.4,58.8,65.2,59.0,54.1,86,71,45,30.20,30.07,3,0,7,0.00
2013-6-23,86.7,73.3,61.3,73.1,64.5,55.7,89,75,58,30.13,29.96,5,0,11,0.00
2013-6-24,88.1,73.2,64.5,73.9,68.0,63.6,97,85,57,30.00,29.86,4,0,7,0.13
2013-6-25,86.9,72.6,62.3,72.4,66.4,61.4,98,83,54,29.92,29.71,4,0,10,0.00
2013-6-26,78.3,71.2,65.6,69.7,66.8,64.1,96,87,69,29.80,29.71,7,0,8,0.00
2013-6-27,77.2,69.4,64.6,69.9,66.6,63.4,98,91,77,29.80,29.66,2,0,8,0.00
2013-6-28,79.9,68.8,62.3,71.3,66.5,61.4,98,93,72,29.66,29.42,5,1,10,2.25
2013-6-29,80.3,71.4,67.4,70.2,67.6,66.1,98,89,67,29.67,29.45,9,1,15,0.03
2013-6-30,82.0,72.2,67.6,71.7,68.5,66.5,97,89,67,29.88,29.67,5,0,12,0.00
2013-7-1,72.0,70.4,68.6,71.0,69.3,67.7,98,97,93,30.03,29.89,5,0,11,0.63
2013-7-2,80.5,72.6,69.1,73.1,70.3,68.5,98,93,78,30.13,30.02,6,1,9,0.02
2013-7-3,83.1,74.8,69.4,73.6,70.7,68.5,97,88,66,30.17,30.10,6,1,9,0.00
2013-7-4,87.1,77.5,70.4,75.2,71.7,69.8,98,84,60,30.18,30.06,7,0,10,0.00
2013-7-5,89.3,78.9,70.3,76.3,72.1,69.4,98,81,55,30.13,30.00,5,0,8,0.00
2013-7-6,86.4,77.3,71.2,73.7,71.2,67.0,96,83,59,30.05,29.96,2,0,5,0.00
2013-7-7,86.7,74.5,68.6,77.2,70.7,67.7,98,89,64,29.97,29.88,1,0,4,1.18
2013-7-8,83.0,74.0,68.9,72.1,70.2,66.5,98,89,65,30.00,29.88,5,0,7,0.00
2013-7-9,78.4,70.4,66.8,71.2,68.2,65.9,98,93,78,30.05,29.98,1,0,5,0.01
2013-7-10,80.0,71.7,67.7,74.4,70.2,66.9,98,95,80,30.01,29.75,3,0,9,0.33
2013-7-11,80.2,71.9,66.1,71.8,68.5,61.4,98,90,58,29.91,29.73,3,0,6,0.01
2013-7-12,78.6,69.0,63.0,65.1,60.2,55.7,86,74,60,30.15,29.91,1,0,3,0.00
2013-7-13,75.4,68.0,62.0,71.3,64.0,54.8,97,87,70,30.27,30.15,2,0,3,0.04
2013-7-14,87.5,76.6,69.5,74.1,70.7,68.4,98,84,57,30.28,30.18,3,0,4,0.01
2013-7-15,87.0,79.1,75.1,73.3,70.8,69.1,82,76,58,30.16,30.08,1,0,2,0.00
2013-7-16,89.4,82.7,74.0,70.7,68.1,65.8,78,63,48,30.13,30.08,0,0,5,0.00
2013-7-17,90.4,79.5,70.8,74.9,69.6,64.4,85,73,55,30.15,29.98,5,0,5,0.00
2013-7-18,90.8,80.3,72.2,77.2,72.1,69.5,92,78,54,29.99,29.89,2,0,5,0.00
2013-7-19,91.1,80.9,71.5,75.9,72.1,68.1,92,76,56,29.91,29.68,7,0,12,0.00
2013-7-20,84.9,77.0,66.1,75.7,69.1,58.9,92,77,60,29.79,29.63,5,0,9,0.00
2013-7-21,82.4,71.5,62.5,68.0,62.8,58.8,90,75,51,29.95,29.79,0,0,2,0.00
2013-7-22,82.2,71.3,63.4,70.3,66.5,61.9,97,86,65,29.97,29.81,3,0,7,0.01
2013-7-23,78.6,71.0,67.4,75.8,68.9,66.1,97,93,81,29.81,29.51,4,0,8,1.69
2013-7-24,77.0,69.6,58.4,69.2,63.2,51.5,98,81,57,29.93,29.56,5,0,8,0.00
2013-7-25,66.2,58.1,52.0,58.0,52.5,45.8,94,82,69,30.07,29.93,0,0,3,0.01
2013-7-26,66.0,60.8,58.3,62.2,58.5,55.9,97,92,82,30.04,29.97,2,0,5,0.21
2013-7-27,79.2,67.2,56.5,66.9,60.8,54.7,97,82,55,30.04,29.95,1,0,7,0.00
2013-7-28,77.7,68.4,59.9,67.8,63.7,58.7,97,86,67,29.97,29.92,1,0,4,0.00
2013-7-29,81.8,71.2,63.3,67.2,63.6,57.0,96,79,51,30.03,29.93,5,0,9,0.00
2013-7-30,77.3,66.4,56.6,60.3,56.5,52.2,89,72,50,30.10,30.02,4,0,7,0.00
2013-7-31,77.8,67.1,56.7,63.2,58.1,54.0,92,75,48,30.12,30.01,0,0,2,0.00
2013-8-1,73.6,64.1,60.0,66.0,61.5,58.5,96,91,75,30.02,29.82,5,0,9,0.23
2013-8-2,78.6,67.7,60.3,65.7,61.4,57.3,97,83,49,29.85,29.76,5,0,10,0.59
2013-8-3,74.9,64.8,58.3,63.3,58.5,49.1,97,82,61,29.85,29.77,3,0,7,0.01
2013-8-4,75.0,62.8,54.5,58.8,54.1,49.4,91,74,50,29.89,29.78,4,0,8,0.00
2013-8-5,73.1,60.0,50.7,51.8,48.5,43.1,93,69,40,30.03,29.88,5,0,9,0.00
2013-8-6,76.2,63.1,51.5,57.5,51.0,44.2,87,66,41,30.11,30.03,1,0,7,0.00
2013-8-7,75.9,65.9,58.3,60.7,57.9,54.6,93,77,49,30.15,30.06,6,0,10,0.00
2013-8-8,74.5,67.0,64.0,69.7,64.8,60.4,97,93,85,30.06,29.97,5,1,8,0.04
2013-8-9,72.6,70.0,68.3,71.6,69.0,67.4,97,97,94,29.98,29.72,6,1,18,3.07
2013-8-10,77.5,67.0,56.9,67.5,58.6,49.4,98,77,45,30.00,29.78,6,1,10,0.01
2013-8-11,76.8,62.9,52.4,60.5,53.4,48.3,90,73,47,30.07,29.99,3,0,9,0.00
2013-8-12,77.8,66.4,56.8,64.5,58.4,55.0,95,77,52,30.01,29.89,1,0,4,0.00
2013-8-13,68.6,65.3,62.5,66.6,63.3,59.2,97,94,87,29.90,29.66,3,0,7,0.44
2013-8-14,69.3,59.2,50.2,62.1,52.9,48.3,97,81,58,29.96,29.67,8,1,14,0.00
2013-8-15,71.8,58.3,48.9,57.1,51.5,47.5,96,80,49,30.11,29.96,4,0,7,0.00
2013-8-16,75.6,62.8,52.0,58.5,53.1,48.8,89,72,47,30.18,30.10,1,0,5,0.00
2013-8-17,78.9,65.0,55.1,63.2,56.4,51.5,94,75,48,30.26,30.18,0,0,1,0.00
2013-8-18,73.1,65.0,57.3,64.5,59.9,54.6,95,84,63,30.24,30.07,0,0,1,0.00
2013-8-19,74.9,65.5,57.5,64.6,60.3,56.3,97,85,61,30.07,29.96,3,0,5,0.00
2013-8-20,81.4,69.3,61.1,66.7,60.0,55.2,92,74,52,30.09,29.98,3,0,5,0.00
2013-8-21,84.1,70.9,60.9,68.6,62.8,58.2,93,77,52,30.13,30.00,0,0,7,0.00
2013-8-22,80.4,71.1,62.5,71.4,66.2,60.7,95,85,66,30.01,29.80,8,0,12,0.01
2013-8-23,76.6,67.1,57.7,66.9,58.5,50.4,96,76,49,30.10,29.81,4,0,8,0.00
2013-8-24,77.0,62.6,51.6,58.9,51.9,47.8,88,70,42,30.32,30.10,0,0,1,0.00
2013-8-25,78.3,65.3,53.7,60.6,54.5,46.7,93,70,37,30.35,30.16,0,0,6,0.00
2013-8-26,76.4,66.5,59.1,67.8,61.7,55.2,96,85,71,30.17,29.86,4,0,8,0.24
2013-8-27,82.1,70.8,65.4,72.1,67.4,64.3,97,90,68,29.86,29.80,1,0,2,0.16
2013-8-28,81.0,72.0,65.8,73.0,67.9,64.0,97,88,64,29.91,29.80,3,0,4,0.92
2013-8-29,68.3,63.6,59.7,66.4,61.7,58.2,97,94,87,30.03,29.87,2,0,4,0.54
2013-8-30,81.2,67.5,58.0,70.4,63.6,56.5,97,88,64,30.00,29.81,4,0,6,0.00
2013-8-31,75.6,70.6,66.9,71.9,68.9,65.4,97,95,88,29.81,29.74,5,0,8,0.02
2013-9-1,75.3,69.9,65.1,72.7,68.6,64.2,97,96,90,29.84,29.77,4,0,7,1.17
2013-9-2,75.4,70.9,69.3,72.8,69.4,67.9,97,95,85,29.81,29.66,4,0,6,0.14
2013-9-3,71.9,65.6,57.1,68.4,62.7,54.7,97,91,77,29.81,29.67,3,0,5,0.01
2013-9-4,77.0,63.7,55.7,59.5,56.3,54.0,96,79,46,29.91,29.80,4,0,9,0.00
2013-9-5,68.9,59.7,50.2,58.7,51.7,42.5,93,76,45,30.13,29.85,1,0,3,0.00
2013-9-6,66.6,53.6,44.5,49.8,42.3,37.5,87,68,41,30.23,30.09,0,0,5,0.00
2013-9-7,72.4,59.6,46.9,59.2,51.3,43.2,90,76,52,30.09,29.85,4,0,6,0.01
2013-9-8,67.8,59.4,48.0,60.3,51.7,39.8,93,77,50,30.07,29.75,3,0,9,0.00
2013-9-9,65.6,53.5,41.4,52.3,44.6,38.1,90,73,50,30.22,30.07,2,0,5,0.00
2013-9-10,71.7,63.6,54.2,68.9,61.8,50.4,96,94,85,30.13,30.01,5,1,12,0.28
2013-9-11,89.2,76.1,66.6,78.2,71.7,65.0,97,87,67,30.06,29.91,5,0,8,0.11
2013-9-12,78.4,69.5,63.8,73.9,67.6,62.6,96,94,84,29.92,29.63,6,0,11,0.70
2013-9-13,70.9,62.4,53.1,64.9,60.1,50.8,96,93,78,29.76,29.57,3,0,6,0.14
2013-9-14,62.2,53.7,47.7,54.5,50.0,46.4,96,88,71,30.06,29.76,3,0,7,0.00
2013-9-15,66.6,53.6,43.6,56.0,48.5,41.9,96,84,60,30.18,30.04,2,0,6,0.00
2013-9-16,64.0,53.4,41.5,55.3,49.0,36.4,95,86,68,30.24,30.01,3,0,4,0.06
2013-9-17,62.9,47.7,37.8,47.5,39.3,34.5,89,75,45,30.42,30.24,1,0,3,0.00
2013-9-18,70.7,52.7,41.5,55.2,45.7,39.9,95,79,48,30.33,30.14,0,0,3,0.00
2013-9-19,75.4,58.6,46.5,59.8,51.4,43.7,92,79,45,30.15,30.04,0,0,1,0.00
2013-9-20,76.7,61.5,50.2,61.2,54.9,48.5,96,81,52,30.07,29.97,2,0,4,0.00
2013-9-21,68.8,61.2,54.2,62.8,58.0,52.5,95,90,74,29.99,29.65,6,1,15,0.07
2013-9-22,65.9,57.4,47.9,63.7,52.1,42.3,96,83,64,29.84,29.57,10,1,12,1.18
2013-9-23,60.4,48.2,39.9,46.2,42.0,38.3,95,80,56,30.01,29.83,3,0,7,0.00
2013-9-24,65.6,48.6,34.9,48.5,41.0,33.3,95,77,48,30.01,29.83,6,0,9,0.00
2013-9-25,69.3,45.3,-90.0,55.4,38.3,-91.0,89,78,54,29.96,29.86,1,0,4,0.00
2013-9-26,64.3,54.0,48.6,50.1,47.7,45.2,90,80,57,30.10,29.97,0,0,2,0.00
2013-9-27,59.5,53.6,49.6,53.1,49.6,47.0,93,87,74,30.26,30.10,0,0,1,0.00
2013-9-28,57.0,50.6,47.8,52.8,48.4,46.1,95,92,86,30.32,30.24,1,0,1,0.00
2013-9-29,68.9,56.2,48.6,56.4,50.0,45.2,96,81,52,30.24,30.07,1,0,3,0.00
2013-9-30,71.2,55.5,46.3,53.9,49.0,44.3,96,81,48,30.09,29.95,1,0,2,0.00
2013-10-1,75.0,60.9,50.3,61.4,53.6,48.0,93,78,54,29.96,29.86,1,0,6,0.00
2013-10-2,73.8,61.8,53.1,61.4,55.7,51.4,95,82,64,29.90,29.86,5,1,12,0.00
2013-10-3,65.7,58.0,55.5,55.9,49.9,48.2,78,74,66,30.06,29.99,0,0,0,0.00
2013-10-4,61.4,57.3,53.3,57.2,53.2,47.6,94,87,72,30.06,30.01,1,0,1,0.28
2013-10-5,66.3,59.9,55.8,60.4,56.9,54.3,95,90,77,30.09,30.03,2,0,3,0.10
2013-10-6,58.3,53.9,50.9,56.8,52.6,49.5,96,96,95,30.16,30.06,3,0,6,0.53
2013-10-7,71.1,61.1,51.9,66.3,59.2,50.5,96,94,83,30.09,29.74,16,1,23,1.12
2013-10-8,63.2,51.9,45.2,50.4,43.1,37.2,95,74,46,30.35,29.89,8,0,10,0.00
2013-10-9,62.5,48.8,39.5,46.9,40.6,35.5,94,75,46,30.45,30.35,4,0,6,0.00
2013-10-10,55.4,48.1,39.7,48.6,43.7,37.6,95,85,68,30.35,30.17,1,0,2,0.00
2013-10-11,70.2,47.8,-90.0,55.5,38.0,-92.0,92,72,27,30.17,30.08,0,0,1,0.00
2013-10-12,57.1,53.2,49.8,52.1,48.8,44.7,94,85,73,30.36,30.13,2,0,6,0.00
2013-10-13,56.0,50.0,43.9,48.3,46.3,42.2,95,87,74,30.43,30.35,2,0,4,0.00
2013-10-14,64.9,51.7,40.3,49.6,44.8,38.9,96,79,43,30.38,30.24,3,0,5,0.00
2013-10-15,64.9,57.4,51.1,54.7,51.6,47.9,90,81,66,30.26,30.14,2,0,5,0.00
2013-10-16,58.3,52.2,46.9,51.1,48.3,45.2,95,87,66,30.14,29.89,2,0,3,0.00
2013-10-17,70.2,59.2,52.2,57.4,53.6,49.8,96,84,57,29.89,29.75,4,1,8,0.00
2013-10-19,61.3,55.5,50.4,47.1,42.7,39.9,85,63,46,29.93,29.72,5,1,12,0.01
2013-10-20,56.5,48.8,42.2,47.9,37.9,31.7,95,69,40,30.01,29.67,8,1,15,0.02
2013-10-21,62.5,50.1,38.5,42.7,38.1,33.1,81,65,43,30.10,29.95,5,1,11,0.00
2013-10-22,56.1,36.5,-90.0,50.5,31.8,-91.0,94,84,73,29.94,29.69,7,1,11,0.00
2013-10-23,47.7,41.7,36.8,35.7,32.3,30.3,80,70,53,29.78,29.57,2,0,6,0.00
2013-10-24,47.7,40.3,32.6,33.2,28.9,24.3,88,66,40,29.89,29.65,12,2,14,0.00
2013-10-25,45.0,37.2,30.6,33.2,28.9,25.8,93,73,49,30.15,29.89,6,1,14,0.00
2013-10-26,49.4,40.1,30.5,33.0,29.5,26.7,92,68,43,30.15,29.85,10,2,16,0.00
2013-10-27,48.5,42.9,36.3,35.2,31.6,28.9,76,65,48,30.05,29.78,8,2,13,0.00
2013-10-28,52.5,39.9,31.1,36.3,30.6,23.1,91,71,48,30.33,30.05,10,1,18,0.00
2013-10-29,45.2,35.1,28.7,23.0,20.9,18.5,73,57,35,30.43,30.32,5,0,8,0.00
2013-10-30,50.1,39.4,32.4,40.3,30.7,18.9,94,72,56,30.34,30.20,4,0,6,0.00
2013-10-31,56.2,48.3,40.8,55.0,47.0,39.2,96,95,94,30.23,29.76,8,2,18,0.50
2013-11-1,63.2,58.4,51.2,60.1,54.8,43.3,96,89,68,29.75,29.43,14,4,25,0.20
2013-11-2,61.6,50.7,43.9,46.7,42.2,39.2,92,74,49,29.73,29.58,7,0,9,0.02
2013-11-3,44.7,36.1,27.3,42.8,25.9,15.2,93,68,44,30.41,29.74,6,1,8,0.00
2013-11-4,39.5,29.9,24.3,20.6,15.9,14.0,71,57,37,30.68,30.41,3,1,6,0.00
2013-11-5,46.0,36.5,26.7,36.1,28.5,19.1,87,73,58,30.70,30.49,5,1,8,0.00
2013-11-6,55.6,47.3,39.6,46.9,41.5,35.8,93,81,64,30.49,30.01,10,2,15,0.00
2013-11-7,55.9,47.3,35.5,53.9,43.9,24.9,95,88,63,30.00,29.68,8,2,15,0.24
2013-11-8,41.1,34.2,28.1,33.9,25.7,20.6,93,72,51,30.08,29.81,11,2,17,0.00
2013-11-9,40.3,34.1,26.5,29.4,24.5,20.8,80,68,58,30.22,29.99,12,2,26,0.00
2013-11-10,45.2,41.3,38.4,36.4,33.5,28.1,84,74,66,29.99,29.75,13,2,19,0.00
2013-11-11,45.1,40.2,33.7,30.6,27.6,25.0,72,61,48,30.09,29.88,9,2,15,0.00
2013-11-12,42.8,30.8,22.4,33.8,19.8,12.6,81,64,49,30.19,29.87,10,2,14,0.00
2013-11-13,30.4,24.2,18.3,16.9,12.9,9.9,78,63,44,30.31,30.16,7,2,13,0.00
2013-11-14,46.3,35.7,25.5,24.2,19.5,16.3,72,53,40,30.17,30.07,7,2,13,0.00
2013-11-15,53.8,42.6,32.7,29.4,19.5,13.4,62,41,20,30.20,30.10,10,1,10,0.00
2013-11-16,56.6,46.2,39.5,39.5,29.0,21.5,90,52,36,30.29,30.17,3,0,7,0.00
2013-11-17,56.2,48.7,41.2,54.9,46.6,39.1,96,93,89,30.27,29.78,6,1,12,0.04
2013-11-18,58.8,53.8,41.9,56.8,44.7,29.1,96,73,50,29.79,29.50,11,3,20,0.40
2013-11-19,41.7,34.0,25.9,31.9,21.7,17.1,71,61,50,30.30,29.65,10,3,18,0.00
2013-11-20,29.2,25.4,21.5,17.5,14.0,11.3,75,62,48,30.62,30.30,7,1,8,0.00
2013-11-21,40.9,32.8,23.8,32.1,19.1,10.0,81,57,36,30.63,30.38,5,1,9,0.00
2013-11-22,44.4,40.9,37.3,43.3,38.9,32.4,96,93,82,30.37,29.83,5,1,7,0.12
2013-11-23,44.1,33.0,21.7,43.0,25.0,15.1,96,73,52,29.94,29.79,10,3,17,0.00
2013-11-24,22.0,17.4,13.2,17.2,4.4,-1.0,86,57,37,30.23,29.81,16,4,21,0.00
2013-11-25,28.6,20.3,9.6,14.4,6.2,-3.0,63,54,40,30.40,30.22,11,2,17,0.00
2013-11-26,33.5,29.1,23.6,31.9,21.9,13.3,94,75,56,30.32,29.99,6,1,11,0.03
2013-11-27,54.6,40.7,30.8,53.4,39.4,29.0,96,95,93,29.99,29.28,7,2,14,2.41
2013-11-28,30.8,23.1,15.8,29.0,14.8,8.6,93,71,49,30.43,29.49,12,3,23,0.00
2013-11-29,29.3,20.9,14.8,15.8,11.9,4.7,88,69,49,30.72,30.43,4,1,9,0.00
2013-11-30,28.1,20.2,10.7,22.3,10.2,3.8,80,65,49,30.79,30.42,10,1,11,0.00
2013-12-1,39.2,33.3,27.2,37.0,30.8,22.0,95,91,80,30.41,30.00,3,0,4,0.01
2013-12-2,35.1,33.2,28.5,33.8,31.9,27.2,95,95,95,30.01,29.90,2,0,2,0.00
2013-12-3,44.3,34.1,28.1,38.3,31.2,26.8,96,90,72,29.96,29.86,4,0,7,0.01
2013-12-4,40.8,33.1,27.7,31.3,27.9,25.9,94,82,62,30.17,29.96,1,0,2,0.00
2013-12-5,51.4,43.9,37.5,50.2,41.2,30.6,96,91,74,30.17,29.89,12,1,14,0.11
2013-12-6,51.4,41.1,31.2,50.2,39.2,29.9,96,93,80,30.13,29.84,5,1,12,0.21
2013-12-7,31.3,28.8,23.0,29.9,25.6,18.6,95,88,78,30.44,30.05,6,0,10,0.00
2013-12-8,25.9,23.6,20.6,19.3,17.5,14.4,87,78,63,30.58,30.44,2,0,5,0.00
2013-12-9,32.2,28.1,21.3,30.9,26.2,17.8,95,93,78,30.46,29.90,4,0,6,0.00
2013-12-10,31.3,26.4,17.6,30.0,24.6,15.3,95,93,87,29.99,29.78,3,0,7,0.00
2013-12-11,24.3,19.8,16.2,21.4,16.9,13.6,92,89,84,30.21,29.99,6,0,9,0.00
2013-12-12,19.1,14.4,10.5,16.5,8.6,4.3,92,78,55,30.28,30.05,5,0,11,0.00
2013-12-13,23.2,16.3,10.2,19.0,10.8,5.8,88,79,67,30.37,29.99,7,1,13,0.00
2013-12-14,15.1,8.9,4.8,12.9,4.1,-1.0,91,80,67,30.58,30.12,5,1,8,0.00
2013-12-15,25.7,21.9,15.3,24.2,19.3,13.1,94,90,80,30.12,29.51,0,0,0,0.00
2013-12-16,22.6,18.2,9.3,18.2,10.0,3.2,89,71,54,30.18,29.72,6,1,12,0.00
2013-12-17,14.4,9.3,3.6,12.2,6.0,0.6,91,86,76,30.23,29.95,3,0,5,0.00
2013-12-18,27.5,20.4,12.6,21.1,16.9,10.2,92,86,76,30.08,29.94,0,0,0,0.00
2013-12-19,36.2,28.9,20.6,25.5,22.2,18.6,92,77,62,30.11,29.97,0,0,0,0.03
2013-12-20,43.8,38.2,32.6,33.6,29.9,25.4,76,72,63,30.10,29.91,8,1,10,0.27
2013-12-21,51.9,45.2,38.8,45.7,39.7,31.8,93,81,69,29.95,29.84,5,1,11,0.01
2013-12-22,57.3,53.7,47.6,56.1,52.2,45.3,96,95,92,29.91,29.69,11,2,23,0.02
2013-12-23,54.8,40.4,31.7,52.8,38.9,29.3,96,95,91,30.09,29.88,4,1,8,0.50
2013-12-24,31.6,26.8,16.8,29.2,18.8,6.8,91,72,60,30.23,30.04,7,1,17,0.00
2013-12-25,19.3,14.6,8.4,6.9,4.2,1.0,74,63,50,30.51,30.23,6,1,16,0.00
2013-12-26,27.6,21.8,15.9,25.5,18.4,6.3,94,87,65,30.47,30.11,3,0,9,0.00
2013-12-27,29.4,24.3,17.5,22.1,19.5,15.1,93,82,67,30.28,30.21,5,1,11,0.00
2013-12-28,41.0,31.9,24.0,29.0,25.0,20.5,89,76,59,30.22,30.02,7,2,12,0.06
2013-12-29,39.4,35.5,32.4,34.3,30.2,26.8,95,82,65,30.03,29.46,8,1,12,1.17
2013-12-30,34.9,26.0,10.4,32.9,19.0,5.1,95,76,46,30.16,29.57,13,2,20,0.00
2013-12-31,18.9,13.6,6.1,14.7,7.4,3.0,90,77,58,30.20,30.02,12,1,16,0.00
2014-1-1,22.1,16.6,11.6,11.7,7.5,3.1,83,67,52,30.37,30.19,7,1,17,0.00
2014-1-2,15.9,10.1,1.4,12.6,7.0,-1.0,89,87,84,30.33,29.82,8,1,11,0.00